Time;durP1;ratioP1;P1;durP2;ratioP2;P2;SDS_P1;SDS_P2;PMS_P1;PMS_P2;Temp;Humidity;BMP_temperature;BMP_pressure;BME280_temperature;BME280_humidity;BME280_pressure;Samples;Min_cycle;Max_cycle;Signal;HPM_P1;HPM_P2
2022/11/14 00:02:20;;;;;;;10.25;5.03;;;7.00;99.90;;;;;;4960063;28;20050;-71
2022/11/14 00:04:46;;;;;;;9.02;5.13;;;6.90;99.90;;;;;;4977851;28;20111;-70
2022/11/14 00:07:12;;;;;;;8.75;4.45;;;7.00;99.90;;;;;;4977111;28;20034;-70
2022/11/14 00:09:39;;;;;;;10.77;5.15;;;7.00;99.90;;;;;;4959846;28;20022;-70
2022/11/14 00:12:05;;;;;;;11.77;5.13;;;7.00;99.90;;;;;;4960155;28;20019;-70
2022/11/14 00:14:31;;;;;;;9.52;5.15;;;6.90;99.90;;;;;;4960462;28;20023;-71
2022/11/14 00:16:56;;;;;;;10.98;5.57;;;6.80;99.90;;;;;;4959545;28;20019;-71
2022/11/14 00:19:22;;;;;;;9.02;4.82;;;6.80;99.90;;;;;;4977206;28;20142;-71
2022/11/14 00:21:47;;;;;;;10.45;5.55;;;6.80;99.90;;;;;;4976916;28;20173;-71
2022/11/14 00:24:13;;;;;;;11.77;5.28;;;6.80;99.90;;;;;;4959574;28;20043;-71
2022/11/14 00:26:38;;;;;;;11.13;5.63;;;6.90;99.90;;;;;;4960122;28;20022;-71
2022/11/14 00:29:04;;;;;;;12.20;5.28;;;6.80;99.90;;;;;;4959263;28;20453;-71
2022/11/14 00:31:29;;;;;;;10.05;5.10;;;6.80;99.90;;;;;;4959450;28;20026;-70
2022/11/14 00:33:55;;;;;;;9.20;5.07;;;6.80;99.90;;;;;;4959437;28;20022;-70
2022/11/14 00:36:20;;;;;;;11.95;5.75;;;6.80;99.90;;;;;;4959753;28;20105;-71
2022/11/14 00:38:46;;;;;;;9.27;5.30;;;6.60;99.90;;;;;;4959570;28;20125;-71
2022/11/14 00:41:11;;;;;;;13.10;5.43;;;6.60;99.90;;;;;;4959074;28;20031;-71
2022/11/14 00:43:37;;;;;;;8.38;4.68;;;6.60;99.90;;;;;;4959380;28;20133;-71
2022/11/14 00:46:02;;;;;;;9.45;5.63;;;6.60;99.90;;;;;;4960210;28;20027;-71
2022/11/14 00:48:28;;;;;;;9.93;5.35;;;6.50;99.90;;;;;;4976664;28;20027;-71
2022/11/14 00:50:53;;;;;;;12.07;5.50;;;6.60;99.90;;;;;;4976650;28;20038;-71
2022/11/14 00:53:19;;;;;;;9.85;4.97;;;6.70;99.90;;;;;;4959842;28;20117;-70
2022/11/14 00:55:45;;;;;;;11.20;5.47;;;6.70;99.90;;;;;;4959001;28;20023;-70
2022/11/14 00:58:10;;;;;;;9.82;5.35;;;6.60;99.90;;;;;;4958992;28;20037;-70
2022/11/14 01:00:36;;;;;;;11.98;5.45;;;6.60;99.90;;;;;;4959054;28;20031;-70
2022/11/14 01:03:01;;;;;;;11.60;5.88;;;6.50;99.90;;;;;;4959149;28;20027;-70
2022/11/14 01:05:27;;;;;;;10.77;5.72;;;6.40;99.90;;;;;;4976216;28;20027;-70
2022/11/14 01:07:53;;;;;;;10.82;5.18;;;6.50;99.90;;;;;;4959002;28;20023;-70
2022/11/14 01:10:19;;;;;;;11.60;5.90;;;6.60;99.90;;;;;;4958704;28;20109;-70
2022/11/14 01:12:45;;;;;;;11.45;6.00;;;6.70;99.90;;;;;;4958689;28;20027;-70
2022/11/14 01:15:11;;;;;;;9.77;5.88;;;6.60;99.90;;;;;;4959228;28;20033;-70
2022/11/14 01:17:36;;;;;;;12.68;6.22;;;6.70;99.90;;;;;;4958596;28;20042;-70
2022/11/14 01:20:03;;;;;;;12.80;5.88;;;6.60;99.90;;;;;;4975857;28;20042;-70
2022/11/14 01:22:29;;;;;;;14.05;5.68;;;6.60;99.90;;;;;;4958660;28;20493;-70
2022/11/14 01:24:57;;;;;;;11.27;6.10;;;6.50;99.90;;;;;;4958465;28;20101;-70
2022/11/14 01:27:23;;;;;;;14.07;6.32;;;6.50;99.90;;;;;;4958547;28;20144;-71
2022/11/14 01:29:49;;;;;;;12.38;6.22;;;6.60;99.90;;;;;;4958381;28;20122;-71
2022/11/14 01:32:14;;;;;;;12.13;7.18;;;6.60;99.90;;;;;;4959052;28;20122;-71
2022/11/14 01:34:40;;;;;;;11.30;6.05;;;6.60;99.90;;;;;;4958201;28;20062;-71
2022/11/14 01:37:05;;;;;;;11.95;6.15;;;6.40;99.90;;;;;;4958590;28;20026;-71
2022/11/14 01:39:31;;;;;;;13.85;6.75;;;6.50;99.90;;;;;;4976146;28;20058;-71
2022/11/14 01:41:57;;;;;;;14.15;6.88;;;6.20;99.90;;;;;;4958364;28;20081;-71
2022/11/14 01:44:46;;;;;;;14.65;7.45;;;6.30;99.90;;;;;;4958242;28;20035;-71
2022/11/14 01:47:18;;;;;;;12.80;6.90;;;6.20;99.90;;;;;;4975362;28;20027;-70
2022/11/14 01:49:48;;;;;;;16.83;7.82;;;6.00;99.90;;;;;;4958143;28;20023;-70
2022/11/14 01:52:20;;;;;;;12.98;6.57;;;6.00;99.90;;;;;;4957985;28;20031;-70
2022/11/14 01:54:48;;;;;;;15.68;7.00;;;6.10;99.90;;;;;;4975309;28;20111;-70
2022/11/14 01:57:17;;;;;;;13.85;7.80;;;6.10;99.90;;;;;;4959001;28;20109;-71
2022/11/14 01:59:47;;;;;;;17.02;7.55;;;6.00;99.90;;;;;;4959584;28;20085;-71
2022/11/14 02:02:18;;;;;;;22.55;8.73;;;6.00;99.90;;;;;;4977391;28;20058;-71
2022/11/14 02:04:47;;;;;;;17.63;8.35;;;6.00;99.90;;;;;;4961556;28;20043;-71
2022/11/14 02:07:14;;;;;;;13.80;7.60;;;6.00;99.90;;;;;;4960186;28;20041;-71
2022/11/14 02:09:44;;;;;;;17.48;8.15;;;6.10;99.90;;;;;;4962012;28;20023;-71
2022/11/14 02:12:13;;;;;;;16.05;8.82;;;6.10;99.90;;;;;;4965928;28;20022;-71
2022/11/14 02:14:40;;;;;;;19.88;8.73;;;6.30;99.90;;;;;;4964550;28;20054;-71
2022/11/14 02:17:06;;;;;;;20.50;9.50;;;6.30;99.90;;;;;;4959367;28;20054;-71
2022/11/14 02:19:41;;;;;;;20.60;8.85;;;6.10;99.90;;;;;;4976070;28;20034;-71
2022/11/14 02:22:06;;;;;;;21.10;8.93;;;5.90;99.90;;;;;;4958167;28;20078;-71
2022/11/14 02:24:32;;;;;;;16.20;7.85;;;5.80;99.90;;;;;;4957999;28;20023;-71
2022/11/14 02:26:58;;;;;;;19.10;8.70;;;5.80;99.90;;;;;;4957235;28;20030;-71
2022/11/14 02:29:23;;;;;;;17.20;7.68;;;5.80;99.90;;;;;;4957571;28;20150;-71
2022/11/14 02:31:49;;;;;;;17.02;7.43;;;5.60;99.90;;;;;;4958253;28;20034;-70
2022/11/14 02:34:18;;;;;;;17.88;8.15;;;5.70;99.90;;;;;;4957365;28;20034;-71
2022/11/14 02:36:44;;;;;;;19.30;8.38;;;5.70;99.90;;;;;;4957334;28;20027;-71
2022/11/14 02:39:09;;;;;;;16.60;8.40;;;5.80;99.90;;;;;;4957410;28;20026;-71
2022/11/14 02:41:35;;;;;;;14.50;7.50;;;5.90;99.90;;;;;;4957421;28;20034;-70
2022/11/14 02:44:00;;;;;;;23.02;9.18;;;5.80;99.90;;;;;;4957680;28;20064;-71
2022/11/14 02:46:26;;;;;;;17.88;8.10;;;6.00;99.90;;;;;;4974573;28;20379;-71
2022/11/14 02:48:51;;;;;;;16.92;7.85;;;5.70;99.90;;;;;;4975030;28;20030;-71
2022/11/14 02:51:17;;;;;;;15.98;7.75;;;5.60;99.90;;;;;;4974483;28;20038;-71
2022/11/14 02:53:42;;;;;;;15.23;7.68;;;5.70;99.90;;;;;;4957272;28;20030;-71
2022/11/14 02:56:08;;;;;;;16.60;8.07;;;5.70;99.90;;;;;;4974601;28;20023;-70
2022/11/14 02:58:33;;;;;;;15.02;7.85;;;5.70;99.90;;;;;;4956982;28;20022;-70
2022/11/14 03:00:59;;;;;;;16.60;8.55;;;5.70;99.90;;;;;;4974733;28;20078;-70
2022/11/14 03:03:24;;;;;;;18.08;8.02;;;5.80;99.90;;;;;;4958464;28;20026;-70
2022/11/14 03:05:52;;;;;;;17.17;9.10;;;5.70;99.90;;;;;;4963349;28;20045;-70
2022/11/14 03:08:18;;;;;;;16.85;7.97;;;5.70;99.90;;;;;;4964058;28;20109;-70
2022/11/14 03:10:44;;;;;;;20.45;8.98;;;5.70;99.90;;;;;;4980665;28;20022;-70
2022/11/14 03:13:10;;;;;;;21.02;8.85;;;5.70;99.90;;;;;;4980874;28;20094;-70
2022/11/14 03:15:36;;;;;;;19.50;9.10;;;5.70;99.90;;;;;;4963755;28;20118;-70
2022/11/14 03:18:02;;;;;;;17.38;8.80;;;5.60;99.90;;;;;;4963458;28;20030;-71
2022/11/14 03:20:27;;;;;;;21.60;9.57;;;5.60;99.90;;;;;;4963434;28;20022;-71
2022/11/14 03:22:53;;;;;;;17.23;8.57;;;5.70;99.90;;;;;;4963817;28;20457;-71
2022/11/14 03:25:18;;;;;;;20.83;9.32;;;5.60;99.90;;;;;;4963518;28;20030;-71
2022/11/14 03:27:44;;;;;;;18.75;8.75;;;5.60;99.90;;;;;;4963109;28;20106;-71
2022/11/14 03:30:10;;;;;;;19.38;9.00;;;5.60;99.90;;;;;;4963055;28;20023;-71
2022/11/14 03:32:36;;;;;;;18.20;8.93;;;5.70;99.90;;;;;;4963492;28;20050;-71
2022/11/14 03:35:02;;;;;;;19.27;8.75;;;5.60;99.90;;;;;;4962981;28;20108;-71
2022/11/14 03:37:27;;;;;;;20.20;9.27;;;5.60;99.90;;;;;;4980817;28;20081;-71
2022/11/14 03:39:53;;;;;;;23.50;9.25;;;5.70;99.90;;;;;;4963051;28;20035;-71
2022/11/14 03:42:18;;;;;;;22.42;9.05;;;5.50;99.90;;;;;;4963290;28;20031;-71
2022/11/14 03:44:44;;;;;;;21.02;9.10;;;5.60;99.90;;;;;;4963003;28;20030;-71
2022/11/14 03:47:09;;;;;;;19.58;9.57;;;5.30;99.90;;;;;;4963158;28;20022;-71
2022/11/14 03:49:35;;;;;;;20.85;9.52;;;5.40;99.90;;;;;;4980679;28;20027;-71
2022/11/14 03:52:00;;;;;;;22.80;9.40;;;5.50;99.90;;;;;;4963714;28;20145;-71
2022/11/14 03:54:26;;;;;;;19.30;9.10;;;5.40;99.90;;;;;;4962840;28;20027;-71
2022/11/14 03:56:51;;;;;;;21.98;9.93;;;5.40;99.90;;;;;;4962979;28;20033;-71
2022/11/14 03:59:17;;;;;;;23.88;10.88;;;5.30;99.90;;;;;;4962819;28;20065;-70
2022/11/14 04:01:42;;;;;;;20.23;9.55;;;5.10;99.90;;;;;;4964043;28;20026;-71
2022/11/14 04:04:11;;;;;;;21.83;9.25;;;5.00;99.90;;;;;;4980359;28;20045;-71
2022/11/14 04:06:37;;;;;;;21.58;10.25;;;5.20;99.90;;;;;;4980138;28;20050;-71
2022/11/14 04:09:03;;;;;;;22.50;9.73;;;4.90;99.90;;;;;;4963032;28;20046;-71
2022/11/14 04:11:28;;;;;;;19.95;8.75;;;4.70;99.90;;;;;;4962736;28;20026;-71
2022/11/14 04:13:54;;;;;;;19.90;8.95;;;4.90;99.90;;;;;;4962607;28;20023;-71
2022/11/14 04:16:19;;;;;;;20.25;8.93;;;5.00;99.90;;;;;;4958898;28;20485;-71
2022/11/14 04:18:45;;;;;;;20.52;9.07;;;5.10;99.90;;;;;;4959696;28;20034;-71
2022/11/14 04:21:11;;;;;;;23.95;9.75;;;5.10;99.90;;;;;;4959745;28;20057;-71
2022/11/14 04:23:36;;;;;;;20.58;9.27;;;5.10;99.90;;;;;;4960147;28;20067;-71
2022/11/14 04:26:01;;;;;;;19.52;8.82;;;5.20;99.90;;;;;;4959605;28;20058;-71
2022/11/14 04:28:27;;;;;;;21.98;9.90;;;5.10;99.90;;;;;;4960015;28;20077;-71
2022/11/14 04:30:52;;;;;;;21.13;9.07;;;5.20;99.90;;;;;;4959760;28;20115;-71
2022/11/14 04:33:18;;;;;;;24.02;9.82;;;5.20;99.90;;;;;;4959675;28;20023;-71
2022/11/14 04:35:43;;;;;;;22.80;10.13;;;5.10;99.90;;;;;;4976902;28;20030;-71
2022/11/14 04:38:09;;;;;;;20.73;9.73;;;5.10;99.90;;;;;;4959878;28;20026;-71
2022/11/14 04:40:35;;;;;;;25.33;10.20;;;5.00;99.90;;;;;;4977227;28;20374;-71
2022/11/14 04:43:00;;;;;;;26.08;10.40;;;5.00;99.90;;;;;;4959146;28;20113;-70
2022/11/14 04:45:26;;;;;;;21.75;10.10;;;4.90;99.90;;;;;;4959546;28;20030;-70
2022/11/14 04:47:52;;;;;;;24.65;9.98;;;4.70;99.90;;;;;;4959167;28;20027;-70
2022/11/14 04:50:17;;;;;;;22.00;10.27;;;4.80;99.90;;;;;;4959113;28;20023;-70
2022/11/14 04:52:43;;;;;;;22.77;9.32;;;4.80;99.90;;;;;;4959537;28;20031;-70
2022/11/14 04:55:09;;;;;;;19.58;8.93;;;4.90;99.90;;;;;;4959370;28;20018;-71
2022/11/14 04:57:34;;;;;;;21.90;10.70;;;4.90;99.90;;;;;;4976676;28;20026;-70
2022/11/14 05:00:00;;;;;;;20.38;10.15;;;4.90;99.90;;;;;;4959340;28;20027;-70
2022/11/14 05:02:26;;;;;;;22.77;10.05;;;4.90;99.90;;;;;;4959527;28;20045;-70
2022/11/14 05:04:51;;;;;;;23.40;9.93;;;5.00;99.90;;;;;;4959139;28;20030;-70
2022/11/14 05:07:17;;;;;;;20.33;9.77;;;5.10;99.90;;;;;;4959043;28;20049;-70
2022/11/14 05:09:42;;;;;;;21.10;10.10;;;5.10;99.90;;;;;;4976155;28;20019;-70
2022/11/14 05:12:08;;;;;;;25.67;10.13;;;5.20;99.90;;;;;;4959168;28;20019;-70
2022/11/14 05:14:33;;;;;;;22.25;9.88;;;5.10;99.90;;;;;;4958646;28;20023;-71
2022/11/14 05:16:59;;;;;;;21.15;9.57;;;4.90;99.90;;;;;;4976165;28;20019;-71
2022/11/14 05:19:24;;;;;;;20.77;9.50;;;5.00;99.90;;;;;;4958852;28;20019;-71
2022/11/14 05:21:50;;;;;;;22.20;9.50;;;4.90;99.90;;;;;;4958435;28;20027;-70
2022/11/14 05:24:16;;;;;;;23.80;11.00;;;4.90;99.90;;;;;;4958562;28;20029;-70
2022/11/14 05:26:41;;;;;;;21.52;9.32;;;4.80;99.90;;;;;;4958141;28;20090;-70
2022/11/14 05:29:07;;;;;;;20.40;9.13;;;4.80;99.90;;;;;;4976201;28;20034;-70
2022/11/14 05:31:32;;;;;;;24.17;10.43;;;4.70;99.90;;;;;;4958277;28;20076;-71
2022/11/14 05:33:58;;;;;;;22.15;10.50;;;4.80;99.90;;;;;;4958339;28;20023;-71
2022/11/14 05:36:23;;;;;;;22.98;9.93;;;4.70;99.90;;;;;;4958221;28;20027;-71
2022/11/14 05:38:49;;;;;;;23.50;10.38;;;4.80;99.90;;;;;;4976285;28;20090;-70
2022/11/14 05:41:18;;;;;;;24.15;10.13;;;4.60;99.90;;;;;;4958409;28;20026;-70
2022/11/14 05:43:44;;;;;;;21.33;9.85;;;4.50;99.90;;;;;;4975394;28;20031;-70
2022/11/14 05:46:12;;;;;;;22.67;9.40;;;4.20;99.90;;;;;;4958248;28;20030;-70
2022/11/14 05:48:38;;;;;;;17.75;9.30;;;4.20;99.90;;;;;;4958447;28;20034;-70
2022/11/14 05:51:05;;;;;;;22.42;10.07;;;4.10;99.90;;;;;;4958288;28;20027;-70
2022/11/14 05:53:32;;;;;;;23.65;10.27;;;4.10;99.90;;;;;;4975378;28;20043;-70
2022/11/14 05:56:03;;;;;;;18.58;8.88;;;4.30;99.90;;;;;;4958027;28;20390;-71
2022/11/14 05:58:33;;;;;;;18.35;8.45;;;4.30;99.90;;;;;;4957939;28;20037;-70
2022/11/14 06:01:05;;;;;;;22.38;9.70;;;4.40;99.90;;;;;;4958942;28;20039;-71
2022/11/14 06:03:36;;;;;;;22.42;10.20;;;4.40;99.90;;;;;;4958063;28;20093;-71
2022/11/14 06:06:03;;;;;;;21.25;8.80;;;4.40;99.90;;;;;;4958132;28;20398;-71
2022/11/14 06:08:30;;;;;;;17.80;8.23;;;4.30;99.90;;;;;;4975413;28;20023;-71
2022/11/14 06:10:56;;;;;;;16.52;8.15;;;4.30;99.90;;;;;;4958067;28;20054;-71
2022/11/14 06:13:23;;;;;;;21.42;9.40;;;4.40;99.90;;;;;;4958399;28;20022;-70
2022/11/14 06:15:49;;;;;;;17.38;8.18;;;4.50;99.90;;;;;;4975526;28;20023;-70
2022/11/14 06:18:15;;;;;;;20.40;8.32;;;4.50;99.90;;;;;;4958228;28;20027;-71
2022/11/14 06:20:41;;;;;;;19.25;8.48;;;4.40;99.90;;;;;;4957493;28;20444;-71
2022/11/14 06:23:06;;;;;;;20.40;9.73;;;4.30;99.90;;;;;;4974580;28;20074;-70
2022/11/14 06:25:32;;;;;;;19.35;9.38;;;4.20;99.90;;;;;;4957772;28;20026;-70
2022/11/14 06:27:58;;;;;;;18.85;8.98;;;4.30;99.90;;;;;;4958238;28;20038;-70
2022/11/14 06:30:23;;;;;;;16.60;8.38;;;4.30;99.90;;;;;;4974639;28;20042;-70
2022/11/14 06:32:49;;;;;;;18.73;8.32;;;4.40;99.90;;;;;;4957707;28;20026;-70
2022/11/14 06:35:14;;;;;;;20.42;9.50;;;4.40;99.90;;;;;;4975259;28;20030;-70
2022/11/14 06:37:40;;;;;;;18.92;8.55;;;4.30;99.90;;;;;;4958274;28;20034;-70
2022/11/14 06:40:06;;;;;;;17.65;8.98;;;4.20;99.90;;;;;;4975778;28;20031;-70
2022/11/14 06:42:31;;;;;;;18.10;9.13;;;4.20;99.90;;;;;;4975641;28;20027;-70
2022/11/14 06:44:57;;;;;;;20.35;9.07;;;4.20;99.90;;;;;;4958316;28;20030;-70
2022/11/14 06:47:23;;;;;;;18.63;8.93;;;4.20;99.90;;;;;;4957137;28;20031;-70
2022/11/14 06:49:48;;;;;;;17.58;8.68;;;4.40;99.90;;;;;;4958639;28;20015;-70
2022/11/14 06:52:14;;;;;;;19.25;9.55;;;4.50;99.90;;;;;;4958103;28;20058;-70
2022/11/14 06:54:39;;;;;;;16.70;7.65;;;4.50;99.90;;;;;;4957744;28;20023;-70
2022/11/14 06:57:05;;;;;;;17.00;7.82;;;4.50;99.90;;;;;;4974731;28;20023;-70
2022/11/14 06:59:30;;;;;;;17.42;8.30;;;4.70;99.90;;;;;;4957366;28;20504;-70
2022/11/14 07:01:56;;;;;;;17.85;7.97;;;4.60;99.90;;;;;;4956939;28;20022;-70
2022/11/14 07:04:21;;;;;;;16.23;7.72;;;4.60;99.90;;;;;;4974284;28;20030;-70
2022/11/14 07:06:47;;;;;;;16.15;8.23;;;4.70;99.90;;;;;;4957722;28;20030;-70
2022/11/14 07:09:12;;;;;;;21.10;9.82;;;4.60;99.90;;;;;;4974487;28;20031;-70
2022/11/14 07:11:38;;;;;;;17.67;7.95;;;4.60;99.90;;;;;;4957109;28;20022;-70
2022/11/14 07:14:05;;;;;;;16.00;8.32;;;4.60;99.90;;;;;;4957186;28;20023;-70
2022/11/14 07:16:35;;;;;;;16.35;8.70;;;4.50;99.90;;;;;;4957064;28;20061;-70
2022/11/14 07:19:04;;;;;;;18.85;8.35;;;4.50;99.90;;;;;;4957740;28;20037;-71
2022/11/14 07:21:30;;;;;;;19.67;7.47;;;4.40;99.90;;;;;;4974550;28;20035;-71
2022/11/14 07:23:56;;;;;;;17.10;8.38;;;4.50;99.90;;;;;;4956879;28;20046;-71
2022/11/14 07:26:23;;;;;;;16.58;8.13;;;4.40;99.90;;;;;;4957295;28;20023;-71
2022/11/14 07:28:48;;;;;;;15.23;7.95;;;4.50;99.90;;;;;;4957628;28;20034;-71
2022/11/14 07:31:17;;;;;;;14.32;7.88;;;4.60;99.90;;;;;;4956852;28;20544;-71
2022/11/14 07:33:43;;;;;;;20.92;7.65;;;4.40;99.90;;;;;;4957074;28;20027;-71
2022/11/14 07:36:10;;;;;;;16.70;8.40;;;4.40;99.90;;;;;;4956843;28;20026;-71
2022/11/14 07:38:36;;;;;;;19.40;7.93;;;4.50;99.90;;;;;;4974156;28;20050;-70
2022/11/14 07:41:08;;;;;;;18.25;7.82;;;4.40;99.90;;;;;;4973937;28;20026;-70
2022/11/14 07:43:33;;;;;;;16.80;7.78;;;4.40;99.90;;;;;;4957355;28;20030;-70
2022/11/14 07:46:10;;;;;;;17.90;8.07;;;4.50;99.90;;;;;;4956640;28;20031;-70
2022/11/14 07:48:36;;;;;;;19.85;9.05;;;4.50;99.90;;;;;;4973933;28;20069;-70
2022/11/14 07:51:04;;;;;;;18.33;8.35;;;4.50;99.90;;;;;;4960117;28;20050;-70
2022/11/14 07:53:30;;;;;;;18.67;9.65;;;4.60;99.90;;;;;;4960132;28;20019;-70
2022/11/14 07:55:56;;;;;;;21.55;9.48;;;4.40;99.90;;;;;;4977573;28;20018;-70
2022/11/14 07:58:22;;;;;;;22.73;9.20;;;4.20;99.90;;;;;;4960472;28;20030;-70
2022/11/14 08:00:47;;;;;;;18.13;8.82;;;4.20;99.90;;;;;;4977824;28;20053;-70
2022/11/14 08:03:13;;;;;;;21.70;9.48;;;4.00;99.90;;;;;;4959875;28;20023;-70
2022/11/14 08:05:38;;;;;;;20.90;8.50;;;4.00;99.90;;;;;;4959911;28;20026;-71
2022/11/14 08:08:04;;;;;;;23.42;10.35;;;4.10;99.90;;;;;;4960645;28;20063;-71
2022/11/14 08:10:30;;;;;;;22.02;9.93;;;4.20;99.90;;;;;;4977205;28;20030;-71
2022/11/14 08:13:01;;;;;;;23.42;9.98;;;4.20;99.90;;;;;;4959823;28;20023;-70
2022/11/14 08:15:27;;;;;;;21.77;9.15;;;4.30;99.90;;;;;;4960051;28;20114;-71
2022/11/14 08:17:57;;;;;;;21.73;9.60;;;4.40;99.90;;;;;;4959835;28;20042;-71
2022/11/14 08:20:22;;;;;;;19.42;8.60;;;4.40;99.90;;;;;;4977042;28;20106;-71
2022/11/14 08:22:48;;;;;;;20.30;8.80;;;4.50;99.90;;;;;;4959472;28;20066;-71
2022/11/14 08:25:13;;;;;;;16.17;8.65;;;4.70;99.90;;;;;;4959624;28;20038;-71
2022/11/14 08:27:39;;;;;;;22.33;9.48;;;4.80;99.90;;;;;;4976927;28;20104;-71
2022/11/14 08:30:05;;;;;;;19.85;9.80;;;4.70;99.90;;;;;;4960356;28;20025;-71
2022/11/14 08:32:30;;;;;;;20.33;9.07;;;4.70;99.90;;;;;;4959245;28;20476;-71
2022/11/14 08:34:56;;;;;;;16.58;7.70;;;4.90;99.90;;;;;;4959743;28;20065;-71
2022/11/14 08:37:21;;;;;;;18.55;7.70;;;5.00;99.90;;;;;;4976745;28;20038;-71
2022/11/14 08:39:47;;;;;;;18.35;8.23;;;5.20;99.90;;;;;;4976716;28;20105;-71
2022/11/14 08:42:12;;;;;;;17.65;8.63;;;5.40;99.90;;;;;;4960208;28;20033;-71
2022/11/14 08:44:38;;;;;;;16.63;8.57;;;5.60;99.90;;;;;;4959308;28;20069;-71
2022/11/14 08:47:04;;;;;;;16.65;8.07;;;5.70;99.90;;;;;;4976519;28;20031;-72
2022/11/14 08:49:29;;;;;;;18.27;8.52;;;5.70;99.90;;;;;;4959218;28;20026;-72
2022/11/14 08:51:55;;;;;;;19.08;9.55;;;5.80;99.90;;;;;;4959078;28;20019;-72
2022/11/14 08:54:20;;;;;;;16.95;8.30;;;5.80;99.90;;;;;;4976574;28;20083;-72
2022/11/14 08:56:46;;;;;;;18.98;8.07;;;5.90;99.90;;;;;;4958998;28;20027;-71
2022/11/14 08:59:11;;;;;;;17.73;8.68;;;5.80;99.90;;;;;;4958936;28;20026;-71
2022/11/14 09:01:37;;;;;;;19.58;8.65;;;5.70;99.90;;;;;;4958446;28;20022;-70
2022/11/14 09:04:03;;;;;;;20.33;9.43;;;5.90;99.90;;;;;;4958981;28;20058;-70
2022/11/14 09:06:29;;;;;;;17.20;9.43;;;5.80;99.90;;;;;;4958911;28;20033;-71
2022/11/14 09:08:55;;;;;;;19.90;9.00;;;5.80;99.90;;;;;;4958777;28;20094;-71
2022/11/14 09:11:20;;;;;;;19.70;8.77;;;5.70;99.90;;;;;;4976428;28;20029;-71
2022/11/14 09:13:46;;;;;;;18.83;9.48;;;5.80;99.90;;;;;;4976031;28;20050;-71
2022/11/14 09:16:11;;;;;;;20.15;8.82;;;5.80;99.90;;;;;;4958709;28;20023;-71
2022/11/14 09:18:37;;;;;;;20.30;9.02;;;6.00;99.90;;;;;;4958720;28;20026;-71
2022/11/14 09:21:05;;;;;;;19.05;9.77;;;6.10;99.90;;;;;;4958730;28;20035;-71
2022/11/14 09:23:31;;;;;;;20.25;9.10;;;6.20;99.90;;;;;;5000374;23;20046;-70
2022/11/14 09:25:57;;;;;;;21.48;10.77;;;6.20;99.90;;;;;;4994306;28;20058;-69
2022/11/14 09:28:23;;;;;;;21.15;9.80;;;6.40;99.90;;;;;;4995271;28;20037;-70
2022/11/14 09:30:49;;;;;;;27.23;9.73;;;6.50;99.90;;;;;;4995243;28;20026;-70
2022/11/14 09:33:15;;;;;;;19.45;9.80;;;6.40;99.90;;;;;;4984177;28;20118;-70
2022/11/14 09:35:40;;;;;;;30.77;11.68;;;6.60;99.90;;;;;;4974815;28;20078;-70
2022/11/14 09:38:09;;;;;;;20.80;9.50;;;6.60;99.90;;;;;;4974759;28;20103;-70
2022/11/14 09:41:10;;;;;;;24.30;11.65;;;6.60;99.90;;;;;;4974435;28;20426;-70
2022/11/14 09:43:39;;;;;;;23.10;10.55;;;6.80;99.90;;;;;;4974898;28;20030;-70
2022/11/14 09:46:16;;;;;;;22.70;9.38;;;6.90;99.90;;;;;;4975491;28;20034;-70
2022/11/14 09:48:42;;;;;;;25.70;10.80;;;6.80;99.90;;;;;;4975164;28;20121;-70
2022/11/14 09:51:19;;;;;;;26.38;10.45;;;6.80;99.90;;;;;;4974628;28;20061;-70
2022/11/14 09:54:18;;;;;;;23.90;11.07;;;6.90;99.90;;;;;;4975238;28;20023;-71
2022/11/14 09:56:44;;;;;;;25.77;11.23;;;7.00;99.90;;;;;;4964907;28;20046;-71
2022/11/14 09:59:11;;;;;;;24.33;10.98;;;7.20;99.90;;;;;;4974138;28;20023;-71
2022/11/14 10:02:01;;;;;;;24.65;11.20;;;7.40;99.90;;;;;;4974162;28;20117;-71
2022/11/14 10:04:55;;;;;;;25.60;10.98;;;7.60;99.90;;;;;;4974593;28;20026;-71
2022/11/14 10:07:44;;;;;;;20.70;10.43;;;7.70;99.90;;;;;;4975217;28;20105;-71
2022/11/14 10:10:31;;;;;;;22.23;9.93;;;7.60;99.90;;;;;;4974824;28;20050;-71
2022/11/14 10:13:22;;;;;;;24.70;10.68;;;7.40;99.90;;;;;;4974459;28;20051;-71
2022/11/14 10:16:09;;;;;;;20.10;8.90;;;7.50;99.90;;;;;;4975423;28;20035;-71
2022/11/14 10:18:50;;;;;;;26.02;9.85;;;7.30;99.90;;;;;;4974908;28;20034;-71
2022/11/14 10:21:46;;;;;;;20.58;9.40;;;7.30;99.90;;;;;;4973729;28;20027;-71
2022/11/14 10:25:00;;;;;;;20.65;8.70;;;7.30;99.90;;;;;;4974770;28;20031;-71
2022/11/14 10:27:41;;;;;;;21.52;10.10;;;7.40;99.90;;;;;;4899387;29;20028;-71
2022/11/14 10:30:13;;;;;;;15.40;7.70;;;7.30;99.90;;;;;;4915498;29;20028;-71
2022/11/14 10:33:10;;;;;;;20.27;10.05;;;7.40;99.90;;;;;;4915555;29;20070;-71
2022/11/14 10:35:44;;;;;;;24.25;9.45;;;7.40;99.90;;;;;;4899973;29;20051;-71
2022/11/14 10:38:17;;;;;;;24.30;10.20;;;7.30;99.90;;;;;;4915702;29;20235;-71
2022/11/14 10:40:52;;;;;;;23.17;9.27;;;7.30;99.90;;;;;;4899934;29;20114;-71
2022/11/14 10:43:45;;;;;;;20.10;9.63;;;7.20;99.90;;;;;;4899294;29;20035;-71
2022/11/14 10:46:26;;;;;;;18.08;8.48;;;7.20;99.90;;;;;;4900117;29;20067;-71
2022/11/14 10:48:52;;;;;;;17.45;8.73;;;7.30;99.90;;;;;;4899660;29;20064;-71
2022/11/14 10:51:20;;;;;;;19.08;9.48;;;7.60;99.90;;;;;;4915182;29;20037;-71
2022/11/14 10:54:09;;;;;;;20.63;9.20;;;7.70;99.90;;;;;;4899127;29;20047;-71
2022/11/14 10:56:55;;;;;;;21.70;8.80;;;7.50;99.90;;;;;;4881099;29;20040;-71
2022/11/14 10:59:21;;;;;;;16.52;7.90;;;7.60;99.90;;;;;;4973213;28;20038;-71
2022/11/14 11:01:49;;;;;;;16.77;7.80;;;7.60;99.90;;;;;;4974423;28;20031;-71
2022/11/14 11:04:19;;;;;;;17.30;8.65;;;7.80;99.90;;;;;;4973892;28;20034;-71
2022/11/14 11:06:45;;;;;;;17.83;8.88;;;7.90;99.90;;;;;;4974224;28;20493;-71
2022/11/14 11:12:01;;;;;;;19.33;8.98;;;7.90;99.90;;;;;;4974908;28;20069;-71
2022/11/14 11:14:27;;;;;;;18.02;8.35;;;7.80;99.90;;;;;;4973540;28;20027;-71
2022/11/14 11:17:11;;;;;;;15.88;7.93;;;7.90;99.90;;;;;;4974628;28;20050;-71
2022/11/14 11:19:41;;;;;;;16.23;8.05;;;8.20;99.90;;;;;;4974591;28;20098;-71
2022/11/14 11:22:34;;;;;;;19.25;8.77;;;8.10;99.90;;;;;;4973743;28;20019;-71
2022/11/14 11:24:59;;;;;;;13.68;7.28;;;8.20;99.90;;;;;;4975871;28;20058;-71
2022/11/14 11:27:27;;;;;;;20.65;8.27;;;8.30;99.90;;;;;;4978024;28;20015;-71
2022/11/14 11:30:18;;;;;;;16.33;7.80;;;8.50;99.90;;;;;;4978392;28;20027;-71
2022/11/14 11:32:43;;;;;;;18.30;8.98;;;8.70;99.90;;;;;;4967737;28;20035;-71
2022/11/14 11:35:12;;;;;;;19.67;8.73;;;8.80;99.90;;;;;;4976794;28;20069;-71
2022/11/14 11:37:58;;;;;;;22.27;8.82;;;8.80;99.90;;;;;;4977974;28;20030;-71
2022/11/14 11:40:28;;;;;;;17.95;8.15;;;8.80;99.90;;;;;;4976701;28;20142;-71
2022/11/14 11:43:15;;;;;;;20.45;7.93;;;9.00;99.90;;;;;;4978064;28;20100;-71
2022/11/14 11:45:46;;;;;;;18.25;8.68;;;9.30;99.90;;;;;;4976612;28;20030;-71
2022/11/14 11:48:20;;;;;;;14.37;7.23;;;9.70;99.90;;;;;;4977772;28;20057;-71
2022/11/14 11:50:47;;;;;;;18.27;8.10;;;9.60;99.90;;;;;;4976477;28;20023;-71
2022/11/14 11:53:32;;;;;;;17.83;8.10;;;9.50;99.90;;;;;;4976304;28;20019;-71
2022/11/14 11:56:10;;;;;;;17.02;7.90;;;9.40;99.90;;;;;;4976385;28;20023;-71
2022/11/14 11:58:58;;;;;;;19.50;8.45;;;9.40;99.90;;;;;;4976373;28;20034;-71
2022/11/14 12:01:24;;;;;;;16.75;7.80;;;9.40;99.90;;;;;;4977495;28;20023;-71
2022/11/14 12:03:52;;;;;;;16.65;8.40;;;9.40;99.90;;;;;;4976562;28;20023;-71
2022/11/14 12:06:26;;;;;;;17.45;7.40;;;9.30;99.90;;;;;;4976395;28;20520;-71
2022/11/14 12:09:09;;;;;;;15.38;7.93;;;9.30;99.90;;;;;;4977573;28;20034;-71
2022/11/14 12:11:38;;;;;;;19.58;9.00;;;9.30;99.90;;;;;;4977283;28;20027;-71
2022/11/14 12:14:22;;;;;;;16.02;8.57;;;9.40;99.90;;;;;;4976000;28;20027;-71
2022/11/14 12:17:20;;;;;;;19.23;8.10;;;9.60;99.90;;;;;;4976028;28;20057;-71
2022/11/14 12:20:00;;;;;;;17.98;7.38;;;9.80;99.90;;;;;;4976816;28;20023;-71
2022/11/14 12:23:16;;;;;;;22.15;9.68;;;9.90;99.90;;;;;;4976240;28;20028;-71
2022/11/14 12:25:48;;;;;;;16.95;7.05;;;9.90;99.90;;;;;;4917487;29;20064;-71
2022/11/14 12:28:47;;;;;;;14.13;6.50;;;10.00;99.90;;;;;;4917532;29;20047;-71
2022/11/14 12:31:15;;;;;;;15.93;7.47;;;9.90;99.90;;;;;;4901781;29;20144;-71
2022/11/14 12:33:58;;;;;;;19.35;7.30;;;9.80;99.90;;;;;;4901892;29;20027;-71
2022/11/14 12:36:33;;;;;;;14.75;6.45;;;9.90;99.90;;;;;;4900915;29;20027;-71
2022/11/14 12:39:00;;;;;;;15.77;6.93;;;9.90;99.90;;;;;;4917692;29;20036;-71
2022/11/14 12:41:29;;;;;;;18.88;7.53;;;10.00;99.90;;;;;;4901659;29;20040;-71
2022/11/14 12:44:24;;;;;;;16.20;6.78;;;10.10;99.90;;;;;;4901918;29;20036;-72
2022/11/14 12:47:22;;;;;;;16.08;6.85;;;10.20;99.90;;;;;;4879792;29;20039;-71
2022/11/14 12:49:48;;;;;;;11.95;6.32;;;10.20;99.90;;;;;;4861780;29;20045;-71
2022/11/14 12:52:42;;;;;;;13.85;6.57;;;10.20;99.90;;;;;;4879791;29;20061;-72
2022/11/14 12:55:25;;;;;;;11.57;5.70;;;10.60;99.90;;;;;;4879549;29;20136;-71
2022/11/14 12:58:06;;;;;;;14.93;7.20;;;10.70;99.90;;;;;;4879703;29;20037;-68
2022/11/14 13:00:34;;;;;;;10.75;5.72;;;10.60;99.90;;;;;;4896876;29;20047;-69